createdAt,value
2022-11-30T00:36:47.717Z,8.08
2022-11-30T00:39:39.221Z,9.78
2022-11-30T00:42:30.573Z,9.95
2022-11-30T00:45:21.765Z,8.05
2022-11-30T00:50:52.926Z,8.83
2022-11-30T00:53:44.936Z,8.20
2022-11-30T00:56:35.943Z,9.45
2022-11-30T00:59:27.662Z,7.60
2022-11-30T01:02:19.720Z,7.95
2022-11-30T01:05:11.646Z,10.38
2022-11-30T01:08:03.333Z,8.40
2022-11-30T01:10:56.289Z,8.75
2022-11-30T01:13:47.869Z,8.43
2022-11-30T01:16:39.623Z,9.65
2022-11-30T01:19:31.426Z,9.23
2022-11-30T01:22:22.986Z,9.65
2022-11-30T01:25:14.516Z,9.88
2022-11-30T01:28:06.119Z,8.78
2022-11-30T01:31:02.945Z,9.00
2022-11-30T01:33:56.481Z,9.18
2022-11-30T01:36:51.055Z,8.83
2022-11-30T01:39:42.743Z,8.73
2022-11-30T01:42:50.029Z,8.05
2022-11-30T01:46:06.766Z,7.80
2022-11-30T01:49:03.559Z,8.85
2022-11-30T01:51:59.234Z,8.43
2022-11-30T01:54:53.718Z,11.15
2022-11-30T01:57:48.987Z,8.78
2022-11-30T02:00:41.035Z,8.33
2022-11-30T02:03:37.854Z,8.85
2022-11-30T02:06:30.195Z,9.03
2022-11-30T02:09:24.013Z,8.50
2022-11-30T02:15:06.568Z,7.90
2022-11-30T02:18:00.159Z,10.53
2022-11-30T02:21:02.910Z,9.00
2022-11-30T02:24:37.769Z,8.58
2022-11-30T02:27:39.548Z,8.35
2022-11-30T02:30:33.390Z,8.53
2022-11-30T02:33:27.973Z,8.43
2022-11-30T02:36:19.940Z,7.80
2022-11-30T02:39:13.392Z,8.15
2022-11-30T02:42:05.142Z,8.80
2022-11-30T02:44:57.210Z,10.63
2022-11-30T02:47:51.089Z,9.05
2022-11-30T02:50:46.042Z,8.50
2022-11-30T02:53:38.297Z,10.78
2022-11-30T02:56:30.885Z,10.53
2022-11-30T02:59:22.622Z,8.50
2022-11-30T03:02:14.907Z,8.98
2022-11-30T03:05:07.115Z,8.23
2022-11-30T03:07:58.681Z,9.23
2022-11-30T03:10:50.672Z,8.48
2022-11-30T03:13:41.865Z,8.13
2022-11-30T03:16:33.800Z,8.03
2022-11-30T03:19:25.262Z,10.35
2022-11-30T03:22:16.809Z,8.53
2022-11-30T03:25:10.021Z,8.90
2022-11-30T03:28:02.693Z,9.05
2022-11-30T03:30:54.172Z,8.10
2022-11-30T03:33:45.839Z,9.73
2022-11-30T03:36:37.300Z,8.70
2022-11-30T03:39:29.134Z,8.73
2022-11-30T03:42:20.734Z,8.40
2022-11-30T03:45:13.338Z,8.35
2022-11-30T03:48:04.592Z,8.63
2022-11-30T03:50:56.125Z,8.95
2022-11-30T03:53:47.860Z,10.90
2022-11-30T03:56:39.298Z,7.60
2022-11-30T03:59:30.622Z,8.85
2022-11-30T04:02:21.869Z,8.80
2022-11-30T04:05:13.693Z,8.40
2022-11-30T04:08:05.610Z,8.25
2022-11-30T04:10:58.233Z,8.58
2022-11-30T04:13:49.685Z,9.13
2022-11-30T04:16:40.962Z,8.43
2022-11-30T04:19:36.717Z,8.45
2022-11-30T04:22:31.022Z,9.45
2022-11-30T04:25:31.815Z,8.83
2022-11-30T04:28:25.167Z,8.45
2022-11-30T04:31:21.252Z,7.50
2022-11-30T04:34:15.149Z,7.10
2022-11-30T04:37:09.198Z,8.78
2022-11-30T04:40:02.958Z,7.62
2022-11-30T04:42:59.180Z,6.22
2022-11-30T04:46:00.960Z,6.70
2022-11-30T04:48:53.463Z,6.75
2022-11-30T04:51:45.283Z,6.67
2022-11-30T04:54:40.022Z,5.78
2022-11-30T04:57:36.234Z,6.03
2022-11-30T05:00:30.910Z,7.42
2022-11-30T05:03:25.075Z,6.70
2022-11-30T05:06:17.387Z,6.37
2022-11-30T05:09:09.463Z,6.95
2022-11-30T05:12:06.317Z,8.10
2022-11-30T05:15:01.624Z,6.00
2022-11-30T05:17:55.583Z,5.92
2022-11-30T05:20:51.940Z,7.22
2022-11-30T05:23:45.174Z,6.37
2022-11-30T05:26:41.613Z,6.47
2022-11-30T05:29:35.908Z,7.25
2022-11-30T05:32:33.875Z,7.15
2022-11-30T05:38:08.502Z,7.20
2022-11-30T05:41:04.227Z,7.10
2022-11-30T05:43:59.100Z,7.97
2022-11-30T05:46:53.654Z,6.00
2022-11-30T05:49:48.610Z,6.10
2022-11-30T05:52:42.590Z,6.37
2022-11-30T05:55:34.889Z,6.30
2022-11-30T05:58:27.151Z,8.38
2022-11-30T06:01:23.783Z,7.58
2022-11-30T06:04:15.005Z,6.00
2022-11-30T06:07:06.442Z,6.10
2022-11-30T06:09:57.990Z,8.18
2022-11-30T06:12:50.076Z,5.97
2022-11-30T06:15:42.518Z,6.55
2022-11-30T06:18:38.237Z,6.60
2022-11-30T06:21:29.389Z,7.12
2022-11-30T06:24:21.065Z,6.62
2022-11-30T06:27:12.830Z,10.72
2022-11-30T06:30:04.543Z,6.37
2022-11-30T06:32:56.219Z,7.00
2022-11-30T06:35:48.953Z,5.65
2022-11-30T06:38:44.716Z,5.62
2022-11-30T06:41:37.809Z,6.80
2022-11-30T06:44:29.541Z,6.15
2022-11-30T06:47:21.227Z,5.92
2022-11-30T06:50:14.112Z,5.67
2022-11-30T06:53:05.911Z,5.97
2022-11-30T06:55:57.684Z,6.40
2022-11-30T06:58:49.095Z,6.12
2022-11-30T07:01:40.476Z,6.87
2022-11-30T07:04:32.077Z,5.35
2022-11-30T07:07:24.782Z,6.62
2022-11-30T07:10:20.103Z,6.22
2022-11-30T07:13:14.632Z,7.67
2022-11-30T07:16:08.693Z,7.33
2022-11-30T07:19:00.218Z,5.80
2022-11-30T07:21:51.818Z,6.42
2022-11-30T07:25:01.029Z,6.60
2022-11-30T07:27:53.386Z,6.35
2022-11-30T07:30:44.746Z,6.67
2022-11-30T07:33:37.864Z,7.92
2022-11-30T07:36:31.667Z,6.72
2022-11-30T07:39:23.917Z,7.55
2022-11-30T07:42:17.251Z,12.90
2022-11-30T07:45:10.907Z,6.72
2022-11-30T07:48:02.452Z,6.00
2022-11-30T07:50:54.018Z,9.20
2022-11-30T07:53:45.808Z,6.55
2022-11-30T07:56:37.469Z,7.70
2022-11-30T07:59:29.211Z,5.97
2022-11-30T08:02:20.465Z,5.75
2022-11-30T08:05:12.835Z,7.85
2022-11-30T08:08:04.309Z,6.97
2022-11-30T08:10:58.528Z,6.40
2022-11-30T08:13:51.757Z,6.37
2022-11-30T08:16:44.357Z,6.10
2022-11-30T08:19:35.963Z,4.22
2022-11-30T08:22:27.944Z,6.00
2022-11-30T08:25:19.924Z,5.03
2022-11-30T08:28:11.405Z,7.22
2022-11-30T08:31:04.170Z,6.50
2022-11-30T08:33:59.142Z,7.05
2022-11-30T08:36:53.448Z,5.58
2022-11-30T08:39:44.936Z,5.17
2022-11-30T08:42:36.345Z,7.28
2022-11-30T08:45:28.391Z,5.53
2022-11-30T08:48:20.055Z,7.35
2022-11-30T08:51:15.078Z,5.42
2022-11-30T08:54:08.885Z,5.22
2022-11-30T08:57:00.708Z,5.00
2022-11-30T08:59:52.605Z,7.55
2022-11-30T09:02:58.195Z,6.40
2022-11-30T09:05:49.439Z,5.97
2022-11-30T09:11:23.594Z,4.70
2022-11-30T09:14:15.135Z,6.67
2022-11-30T09:17:07.112Z,10.65
2022-11-30T09:19:58.715Z,6.37
2022-11-30T09:22:51.829Z,5.80
2022-11-30T09:25:43.266Z,5.35
2022-11-30T09:28:35.480Z,5.53
2022-11-30T09:31:28.447Z,5.17
2022-11-30T09:37:01.361Z,5.05
2022-11-30T09:39:53.106Z,5.15
2022-11-30T09:42:54.790Z,3.95
2022-11-30T09:48:53.110Z,4.97
2022-11-30T09:51:50.466Z,4.85
2022-11-30T09:54:44.460Z,4.35
2022-11-30T09:57:39.030Z,6.30
2022-11-30T10:00:30.893Z,7.30
2022-11-30T10:03:27.944Z,10.85
2022-11-30T10:06:23.951Z,5.40
2022-11-30T10:09:27.129Z,10.28
2022-11-30T10:12:21.910Z,7.83
2022-11-30T10:15:20.407Z,5.55
2022-11-30T10:18:15.881Z,6.60
2022-11-30T10:21:12.373Z,8.18
2022-11-30T10:24:15.450Z,6.00
2022-11-30T10:27:12.136Z,6.53
2022-11-30T10:30:04.522Z,8.43
2022-11-30T10:32:58.818Z,7.67
2022-11-30T10:35:52.834Z,5.72
2022-11-30T10:38:47.493Z,6.85
2022-11-30T10:41:44.865Z,10.08
2022-11-30T10:44:42.464Z,9.75
2022-11-30T10:47:37.417Z,6.05
2022-11-30T10:50:31.723Z,5.15
2022-11-30T10:53:23.252Z,4.90
2022-11-30T10:56:15.942Z,12.07
2022-11-30T10:59:12.767Z,6.65
2022-11-30T11:02:06.564Z,8.93
2022-11-30T11:05:26.046Z,7.28
2022-11-30T11:08:25.821Z,8.13
2022-11-30T11:11:33.071Z,6.15
2022-11-30T11:14:30.417Z,10.15
2022-11-30T11:17:28.613Z,7.58
2022-11-30T11:20:35.993Z,5.20
2022-11-30T11:26:12.482Z,6.53
2022-11-30T11:29:06.401Z,7.20
2022-11-30T11:32:08.651Z,8.90
2022-11-30T11:35:01.328Z,7.03
2022-11-30T11:37:54.606Z,6.58
2022-11-30T11:40:55.566Z,7.12
2022-11-30T11:44:04.012Z,8.43
2022-11-30T11:46:58.585Z,10.85
2022-11-30T11:49:50.931Z,7.58
2022-11-30T11:52:43.699Z,8.30
2022-11-30T11:55:37.191Z,8.45
2022-11-30T11:58:36.911Z,10.72
2022-11-30T12:01:47.274Z,9.93
2022-11-30T12:04:47.788Z,11.93
2022-11-30T12:07:42.447Z,5.20
2022-11-30T12:10:54.261Z,9.00
2022-11-30T12:13:35.658Z,7.45
2022-11-30T12:16:37.354Z,6.33
2022-11-30T12:22:20.232Z,7.40
2022-11-30T12:25:22.423Z,7.53
2022-11-30T12:28:21.587Z,10.30
2022-11-30T12:31:17.386Z,6.35
2022-11-30T12:34:13.509Z,7.65
2022-11-30T12:37:07.715Z,9.13
2022-11-30T12:40:05.082Z,10.05
2022-11-30T12:43:00.862Z,14.13
2022-11-30T12:45:55.345Z,8.40
2022-11-30T12:48:51.114Z,6.62
2022-11-30T12:54:27.856Z,8.48
2022-11-30T12:57:22.951Z,5.75
2022-11-30T13:00:17.997Z,7.12
2022-11-30T13:03:30.790Z,6.35
2022-11-30T13:09:07.870Z,8.98
2022-11-30T13:12:02.757Z,6.47
2022-11-30T13:14:57.373Z,8.28
2022-11-30T13:17:50.686Z,9.75
2022-11-30T13:20:46.244Z,6.00
2022-11-30T13:23:40.638Z,6.10
2022-11-30T13:26:35.745Z,9.58
2022-11-30T13:29:55.293Z,6.15
2022-11-30T13:32:58.023Z,8.13
2022-11-30T13:35:56.425Z,6.15
2022-11-30T13:38:50.625Z,8.55
2022-11-30T13:41:43.627Z,10.20
2022-11-30T13:44:38.087Z,8.45
2022-11-30T13:48:16.492Z,7.90
2022-11-30T13:56:48.457Z,6.80
2022-11-30T13:59:41.375Z,7.75
2022-11-30T14:03:21.045Z,10.53
2022-11-30T14:06:48.688Z,7.70
2022-11-30T14:10:00.989Z,7.17
2022-11-30T14:13:01.866Z,9.00
2022-11-30T14:16:00.078Z,7.62
2022-11-30T14:21:44.850Z,8.35
2022-11-30T14:24:37.235Z,9.50
2022-11-30T14:27:30.732Z,7.35
2022-11-30T14:30:23.869Z,7.40
2022-11-30T14:33:19.904Z,6.65
2022-11-30T14:36:12.654Z,7.22
2022-11-30T14:39:04.802Z,9.73
2022-11-30T14:41:58.114Z,11.20
2022-11-30T14:44:50.927Z,7.97
2022-11-30T14:47:47.953Z,9.93
2022-11-30T14:50:36.631Z,8.13
2022-11-30T14:53:39.728Z,7.42
2022-11-30T14:59:27.098Z,7.87
2022-11-30T15:02:25.041Z,8.45
2022-11-30T15:05:19.419Z,9.78
2022-11-30T15:10:55.170Z,11.57
2022-11-30T15:13:52.715Z,10.40
2022-11-30T15:16:52.655Z,7.92
2022-11-30T15:19:47.722Z,12.13
2022-11-30T15:22:40.611Z,8.08
2022-11-30T15:25:37.700Z,10.38
2022-11-30T15:28:32.603Z,8.03
2022-11-30T15:34:21.939Z,11.75
2022-11-30T15:37:13.770Z,7.70
2022-11-30T15:40:08.892Z,9.60
2022-11-30T15:43:01.389Z,11.65
2022-11-30T15:45:58.049Z,8.58
2022-11-30T15:48:49.522Z,9.65
2022-11-30T15:51:44.935Z,9.55
2022-11-30T15:54:52.527Z,10.18
2022-11-30T15:58:02.498Z,9.58
2022-11-30T16:01:05.294Z,9.00
2022-11-30T16:04:05.652Z,7.40
2022-11-30T16:06:57.919Z,7.37
2022-11-30T16:09:49.713Z,10.10
2022-11-30T16:12:43.229Z,9.78
2022-11-30T16:15:36.444Z,11.93
2022-11-30T16:18:29.558Z,12.13
2022-11-30T16:21:24.120Z,10.63
2022-11-30T16:24:17.217Z,9.73
2022-11-30T16:27:20.514Z,11.53
2022-11-30T16:30:17.974Z,11.50
2022-11-30T16:33:15.347Z,8.83
2022-11-30T16:36:12.068Z,8.05
2022-11-30T16:39:07.522Z,8.53
2022-11-30T16:42:01.368Z,8.18
2022-11-30T16:44:52.989Z,9.90
2022-11-30T16:47:45.265Z,9.05
2022-11-30T16:50:38.013Z,9.18
2022-11-30T16:53:29.472Z,8.98
2022-11-30T16:56:21.487Z,11.00
2022-11-30T16:59:16.674Z,9.58
2022-11-30T17:02:09.249Z,10.03
2022-11-30T17:05:00.815Z,13.98
2022-11-30T17:07:52.303Z,8.33
2022-11-30T17:10:43.669Z,10.58
2022-11-30T17:13:35.306Z,11.57
2022-11-30T17:16:26.956Z,11.78
2022-11-30T17:19:19.006Z,11.78
2022-11-30T17:22:10.622Z,11.88
2022-11-30T17:25:02.053Z,17.77
2022-11-30T17:27:53.806Z,13.98
2022-11-30T17:30:45.431Z,13.20
2022-11-30T17:33:37.958Z,13.95
2022-11-30T17:36:29.898Z,18.65
2022-11-30T17:39:21.512Z,20.37
2022-11-30T17:42:12.906Z,25.23
2022-11-30T17:45:06.855Z,12.70
2022-11-30T17:47:58.064Z,12.85
2022-11-30T17:50:52.675Z,14.00
2022-11-30T17:53:45.260Z,12.25
2022-11-30T17:56:37.113Z,14.47
2022-11-30T17:59:28.707Z,13.98
2022-11-30T18:02:20.248Z,13.15
2022-11-30T18:05:12.417Z,11.93
2022-11-30T18:08:06.912Z,16.42
2022-11-30T18:10:58.563Z,14.40
2022-11-30T18:13:51.854Z,14.95
2022-11-30T18:16:43.603Z,12.35
2022-11-30T18:19:34.996Z,15.38
2022-11-30T18:22:26.366Z,13.03
2022-11-30T18:25:18.446Z,17.98
2022-11-30T18:28:10.006Z,15.98
2022-11-30T18:31:01.785Z,15.65
2022-11-30T18:33:56.548Z,11.70
2022-11-30T18:36:47.921Z,12.37
2022-11-30T18:39:39.254Z,12.37
2022-11-30T18:42:31.963Z,12.85
2022-11-30T18:45:23.509Z,13.98
2022-11-30T18:48:14.847Z,11.65
2022-11-30T18:51:13.058Z,12.25
2022-11-30T18:54:06.846Z,12.15
2022-11-30T18:56:58.313Z,13.93
2022-11-30T18:59:53.858Z,13.35
2022-11-30T19:02:43.214Z,12.58
2022-11-30T19:05:36.839Z,12.43
2022-11-30T19:08:28.243Z,11.60
2022-11-30T19:11:20.494Z,12.18
2022-11-30T19:14:15.803Z,11.22
2022-11-30T19:17:07.513Z,11.48
2022-11-30T19:20:00.780Z,12.50
2022-11-30T19:22:51.622Z,14.25
2022-11-30T19:25:43.296Z,14.38
2022-11-30T19:28:36.534Z,18.60
2022-11-30T19:31:30.557Z,16.30
2022-11-30T19:34:22.392Z,14.70
2022-11-30T19:37:15.457Z,13.43
2022-11-30T19:40:09.295Z,14.85
2022-11-30T19:43:01.222Z,12.93
2022-11-30T19:45:53.201Z,14.73
2022-11-30T19:48:45.347Z,15.28
2022-11-30T19:51:37.015Z,13.70
2022-11-30T19:54:28.759Z,19.80
2022-11-30T19:57:20.469Z,15.40
2022-11-30T20:00:14.358Z,15.35
2022-11-30T20:03:08.589Z,15.50
2022-11-30T20:06:00.237Z,15.43
2022-11-30T20:08:51.898Z,13.08
2022-11-30T20:11:43.111Z,16.12
2022-11-30T20:14:34.279Z,15.55
2022-11-30T20:20:10.283Z,18.98
2022-11-30T20:23:01.821Z,13.93
2022-11-30T20:25:54.705Z,15.28
2022-11-30T20:28:46.230Z,14.63
2022-11-30T20:31:39.205Z,16.23
2022-11-30T20:34:34.347Z,17.82
2022-11-30T20:37:23.387Z,15.38
2022-11-30T20:40:15.620Z,14.35
2022-11-30T20:43:07.920Z,16.97
2022-11-30T20:45:59.851Z,15.88
2022-11-30T20:48:52.008Z,14.75
2022-11-30T20:51:43.229Z,16.17
2022-11-30T20:54:34.560Z,15.35
2022-11-30T20:57:26.209Z,18.12
2022-11-30T21:00:18.807Z,15.85
2022-11-30T21:03:10.132Z,17.10
2022-11-30T21:06:01.776Z,17.00
2022-11-30T21:08:53.229Z,17.15
2022-11-30T21:11:45.713Z,17.07
2022-11-30T21:14:37.236Z,16.77
2022-11-30T21:17:28.579Z,19.20
2022-11-30T21:20:20.428Z,18.07
2022-11-30T21:23:12.203Z,16.17
2022-11-30T21:26:07.126Z,15.15
2022-11-30T21:31:40.595Z,17.05
2022-11-30T21:34:32.157Z,15.30
2022-11-30T21:37:23.914Z,17.50
2022-11-30T21:40:16.437Z,16.05
2022-11-30T21:43:08.229Z,17.62
2022-11-30T21:46:02.023Z,18.12
2022-11-30T21:48:53.884Z,19.75
2022-11-30T21:51:45.647Z,17.17
2022-11-30T21:54:36.871Z,19.02
2022-11-30T21:57:28.466Z,18.50
2022-11-30T22:00:22.085Z,17.75
2022-11-30T22:03:18.125Z,18.77
2022-11-30T22:06:09.152Z,20.15
2022-11-30T22:09:05.436Z,14.38
2022-11-30T22:14:36.391Z,14.30
2022-11-30T22:17:32.474Z,13.32
2022-11-30T22:20:23.622Z,15.28
2022-11-30T22:23:16.457Z,15.70
2022-11-30T22:26:13.288Z,14.23
2022-11-30T22:29:06.715Z,13.98
2022-11-30T22:31:57.909Z,15.48
2022-11-30T22:34:50.199Z,18.15
2022-11-30T22:37:41.691Z,15.28
2022-11-30T22:40:33.344Z,16.77
2022-11-30T22:46:10.108Z,18.23
2022-11-30T22:49:02.911Z,14.67
2022-11-30T22:51:54.393Z,16.02
2022-11-30T22:54:45.963Z,13.18
2022-11-30T23:00:17.951Z,14.35
2022-11-30T23:03:09.716Z,16.70
2022-11-30T23:06:02.015Z,14.95
2022-11-30T23:08:54.200Z,15.30
2022-11-30T23:11:46.236Z,15.25
2022-11-30T23:14:37.864Z,12.90
2022-11-30T23:17:29.580Z,12.47
2022-11-30T23:20:22.621Z,15.28
2022-11-30T23:23:14.162Z,13.32
2022-11-30T23:26:12.997Z,15.10
2022-11-30T23:29:06.486Z,13.40
2022-11-30T23:34:36.261Z,12.80
2022-11-30T23:37:27.662Z,16.32
2022-11-30T23:40:19.826Z,16.85
2022-11-30T23:43:10.987Z,16.52
2022-11-30T23:46:02.625Z,19.15
2022-11-30T23:48:55.942Z,22.45
2022-11-30T23:54:29.190Z,17.67
